createdAt,value
2023-05-02T04:07:39.982Z,-85
2023-05-02T04:10:16.371Z,-84
2023-05-02T04:12:44.710Z,-84
2023-05-02T04:15:13.257Z,-86
2023-05-02T04:17:41.886Z,-86
2023-05-02T04:20:11.116Z,-78
2023-05-02T04:22:41.000Z,-77
2023-05-02T04:25:10.138Z,-76
2023-05-02T04:27:38.657Z,-78
2023-05-02T04:30:08.394Z,-78
2023-05-02T04:32:36.797Z,-77
2023-05-02T04:35:05.856Z,-78
2023-05-02T04:37:34.397Z,-78
2023-05-02T04:40:04.738Z,-79
2023-05-02T04:42:33.530Z,-78
2023-05-02T04:45:02.652Z,-78
2023-05-02T04:47:31.387Z,-78
2023-05-02T04:50:00.034Z,-78
2023-05-02T04:52:28.561Z,-78
2023-05-02T04:54:57.270Z,-78
2023-05-02T04:57:26.982Z,-79
2023-05-02T04:59:55.475Z,-79
2023-05-02T05:02:25.993Z,-78
2023-05-02T05:05:02.384Z,-78
2023-05-02T05:07:31.968Z,-78
2023-05-02T05:10:01.011Z,-77
2023-05-02T05:12:30.895Z,-79
2023-05-02T05:14:59.185Z,-79
2023-05-02T05:17:27.805Z,-79
2023-05-02T05:19:56.683Z,-78
2023-05-02T05:22:25.269Z,-77
2023-05-02T05:24:54.968Z,-77
2023-05-02T05:27:23.836Z,-77
2023-05-02T05:29:53.962Z,-77
2023-05-02T05:32:22.621Z,-78
2023-05-02T05:34:54.128Z,-78
2023-05-02T05:37:22.965Z,-78
2023-05-02T05:39:51.961Z,-77
2023-05-02T05:42:20.749Z,-79
2023-05-02T05:44:49.356Z,-80
2023-05-02T05:47:23.568Z,-79
2023-05-02T05:49:54.617Z,-80
2023-05-02T05:52:23.079Z,-78
2023-05-02T05:54:51.939Z,-79
2023-05-02T05:57:20.378Z,-79
2023-05-02T05:59:49.253Z,-79
2023-05-02T06:02:18.148Z,-78
2023-05-02T06:04:48.508Z,-80
2023-05-02T06:07:17.011Z,-79
2023-05-02T06:09:45.840Z,-80
2023-05-02T06:12:16.492Z,-81
2023-05-02T06:14:45.041Z,-79
2023-05-02T06:17:13.707Z,-79
2023-05-02T06:19:42.174Z,-80
2023-05-02T06:22:13.550Z,-80
2023-05-02T06:24:42.079Z,-80
2023-05-02T06:27:10.679Z,-80
2023-05-02T06:29:39.304Z,-80
2023-05-02T06:32:07.733Z,-80
2023-05-02T06:34:36.272Z,-79
2023-05-02T06:37:04.946Z,-79
2023-05-02T06:39:35.136Z,-80
2023-05-02T06:42:03.858Z,-80
2023-05-02T06:44:32.413Z,-80
2023-05-02T06:47:01.036Z,-80
2023-05-02T06:49:30.756Z,-80
2023-05-02T06:51:59.156Z,-80
2023-05-02T06:54:28.306Z,-80
2023-05-02T06:56:58.220Z,-80
2023-05-02T06:59:26.573Z,-80
2023-05-02T07:01:54.985Z,-80
2023-05-02T07:04:23.408Z,-80
2023-05-02T07:06:52.105Z,-80
2023-05-02T07:09:21.896Z,-80
2023-05-02T07:11:50.842Z,-80
2023-05-02T07:14:22.005Z,-80
2023-05-02T07:16:50.686Z,-80
2023-05-02T07:19:19.233Z,-79
2023-05-02T07:21:47.720Z,-80
2023-05-02T07:24:16.515Z,-80
2023-05-02T07:26:44.943Z,-79
2023-05-02T07:29:13.385Z,-80
2023-05-02T07:31:43.533Z,-82
2023-05-02T07:34:12.245Z,-80
2023-05-02T07:36:41.961Z,-80
2023-05-02T07:39:10.921Z,-80
2023-05-02T07:41:41.214Z,-79
2023-05-02T07:44:09.614Z,-80
2023-05-02T07:46:38.007Z,-79
2023-05-02T07:49:08.184Z,-80
2023-05-02T07:51:37.010Z,-80
2023-05-02T07:54:05.511Z,-80
2023-05-02T07:56:34.715Z,-80
2023-05-02T07:59:05.571Z,-80
2023-05-02T08:01:34.193Z,-79
2023-05-02T08:04:02.979Z,-79
2023-05-02T08:06:34.209Z,-79
2023-05-02T08:09:02.917Z,-81
2023-05-02T08:11:31.296Z,-80
2023-05-02T08:13:59.923Z,-80
2023-05-02T08:16:28.118Z,-82
2023-05-02T08:18:56.565Z,-79
2023-05-02T08:21:25.099Z,-81
2023-05-02T08:23:59.909Z,-79
2023-05-02T08:26:28.864Z,-80
2023-05-02T08:28:57.241Z,-79
2023-05-02T08:31:26.223Z,-81
2023-05-02T08:33:54.727Z,-79
2023-05-02T08:36:23.547Z,-80
2023-05-02T08:38:52.239Z,-80
2023-05-02T08:41:22.161Z,-81
2023-05-02T08:43:50.954Z,-81
2023-05-02T08:46:19.536Z,-80
2023-05-02T08:48:49.496Z,-80
2023-05-02T08:53:48.398Z,-80
2023-05-02T08:56:17.092Z,-79
2023-05-02T08:58:47.584Z,-79
2023-05-02T09:01:17.928Z,-80
2023-05-02T09:03:52.826Z,-80
2023-05-02T09:06:23.045Z,-80
2023-05-02T09:08:54.051Z,-80
2023-05-02T09:11:23.131Z,-80
2023-05-02T09:13:54.140Z,-80
2023-05-02T09:16:25.912Z,-80
2023-05-02T09:18:55.886Z,-80
2023-05-02T09:21:26.017Z,-78
2023-05-02T09:23:56.172Z,-79
2023-05-02T09:26:31.588Z,-79
2023-05-02T09:29:02.759Z,-79
2023-05-02T09:34:12.449Z,-81
2023-05-02T09:36:42.134Z,-80
2023-05-02T09:39:13.291Z,-79
2023-05-02T09:41:42.824Z,-79
2023-05-02T09:44:13.761Z,-80
2023-05-02T09:46:43.064Z,-81
2023-05-02T09:49:12.187Z,-80
2023-05-02T09:51:40.702Z,-80
2023-05-02T09:54:09.093Z,-81
2023-05-02T09:56:57.023Z,-78
2023-05-02T09:59:27.458Z,-81
2023-05-02T10:02:00.659Z,-80
2023-05-02T10:04:30.378Z,-80
2023-05-02T10:06:59.964Z,-80
2023-05-02T10:09:29.094Z,-80
2023-05-02T10:11:58.248Z,-80
2023-05-02T10:14:29.791Z,-80
2023-05-02T10:17:02.586Z,-80
2023-05-02T10:19:32.895Z,-79
2023-05-02T10:22:02.212Z,-79
2023-05-02T10:24:30.809Z,-79
2023-05-02T10:26:59.723Z,-80
2023-05-02T10:29:31.149Z,-80
2023-05-02T10:32:00.735Z,-80
2023-05-02T10:34:29.654Z,-79
2023-05-02T10:37:01.411Z,-80
2023-05-02T10:39:30.765Z,-81
2023-05-02T10:42:02.208Z,-81
2023-05-02T10:44:39.142Z,-81
2023-05-02T10:47:22.730Z,-80
2023-05-02T10:49:55.416Z,-78
2023-05-02T10:52:35.774Z,-79
2023-05-02T10:55:18.816Z,-80
2023-05-02T10:58:24.711Z,-79
2023-05-02T11:00:54.897Z,-80
2023-05-02T11:03:58.672Z,-80
2023-05-02T11:06:27.982Z,-80
2023-05-02T11:09:35.518Z,-80
2023-05-02T11:12:16.687Z,-82
2023-05-02T11:14:49.908Z,-79
2023-05-02T11:17:21.202Z,-79
2023-05-02T11:20:20.201Z,-80
2023-05-02T11:22:52.042Z,-79
2023-05-02T11:25:35.842Z,-80
2023-05-02T11:28:06.160Z,-79
2023-05-02T11:30:43.761Z,-79
2023-05-02T11:33:30.789Z,-80
2023-05-02T11:35:59.613Z,-79
2023-05-02T11:38:28.940Z,-79
2023-05-02T11:41:02.731Z,-78
2023-05-02T11:43:32.373Z,-78
2023-05-02T11:46:02.596Z,-79
2023-05-02T11:48:34.750Z,-80
2023-05-02T11:51:07.925Z,-80
2023-05-02T11:53:42.701Z,-80
2023-05-02T11:56:11.315Z,-80
2023-05-02T11:58:39.730Z,-80
2023-05-02T12:01:18.540Z,-80
2023-05-02T12:03:52.653Z,-79
2023-05-02T12:06:21.496Z,-79
2023-05-02T12:08:50.643Z,-80
2023-05-02T12:11:19.211Z,-80
2023-05-02T12:13:48.933Z,-80
2023-05-02T12:16:17.971Z,-79
2023-05-02T12:18:48.990Z,-79
2023-05-02T12:21:17.964Z,-79
2023-05-02T12:23:46.575Z,-78
2023-05-02T12:26:22.308Z,-79
2023-05-02T12:28:51.972Z,-79
2023-05-02T12:31:21.169Z,-80
2023-05-02T12:33:52.748Z,-79
2023-05-02T12:36:21.816Z,-79
2023-05-02T12:38:51.524Z,-78
2023-05-02T12:41:20.212Z,-79
2023-05-02T12:43:49.848Z,-81
2023-05-02T12:46:18.745Z,-80
2023-05-02T12:48:47.614Z,-80
2023-05-02T12:51:25.226Z,-80
2023-05-02T12:53:53.758Z,-79
2023-05-02T12:56:24.613Z,-77
2023-05-02T12:58:52.968Z,-79
2023-05-02T13:01:22.001Z,-79
2023-05-02T13:03:52.799Z,-80
2023-05-02T13:06:21.497Z,-80
2023-05-02T13:08:52.114Z,-80
2023-05-02T13:11:20.859Z,-81
2023-05-02T13:13:49.431Z,-81
2023-05-02T13:16:17.832Z,-80
2023-05-02T13:18:47.906Z,-81
2023-05-02T13:21:17.088Z,-82
2023-05-02T13:23:45.883Z,-81
2023-05-02T13:26:16.468Z,-81
2023-05-02T13:28:44.787Z,-80
2023-05-02T13:31:13.788Z,-80
2023-05-02T13:33:42.634Z,-81
2023-05-02T13:36:11.297Z,-80
2023-05-02T13:38:39.937Z,-80
2023-05-02T13:41:08.576Z,-80
2023-05-02T13:43:40.861Z,-81
2023-05-02T13:46:09.901Z,-80
2023-05-02T13:48:38.979Z,-80
2023-05-02T13:51:07.913Z,-81
2023-05-02T13:53:36.815Z,-81
2023-05-02T13:56:06.751Z,-81
2023-05-02T13:58:35.455Z,-82
2023-05-02T14:01:05.961Z,-80
2023-05-02T14:03:34.379Z,-81
2023-05-02T14:09:02.104Z,-80
2023-05-02T14:11:30.678Z,-81
2023-05-02T14:14:01.172Z,-81
2023-05-02T14:16:31.619Z,-82
2023-05-02T14:19:00.257Z,-81
2023-05-02T14:21:28.955Z,-82
2023-05-02T14:23:57.314Z,-82
2023-05-02T14:26:26.394Z,-79
2023-05-02T14:28:54.933Z,-81
2023-05-02T14:31:24.102Z,-81
2023-05-02T14:33:54.662Z,-81
2023-05-02T14:36:23.133Z,-81
2023-05-02T14:38:54.134Z,-82
2023-05-02T14:41:22.843Z,-81
2023-05-02T14:43:52.886Z,-80
2023-05-02T14:46:21.199Z,-80
2023-05-02T14:48:49.683Z,-80
2023-05-02T14:51:20.075Z,-80
2023-05-02T14:53:49.890Z,-79
2023-05-02T14:56:18.832Z,-80
2023-05-02T14:58:47.326Z,-80
2023-05-02T15:01:20.059Z,-81
2023-05-02T15:04:05.348Z,-81
2023-05-02T15:06:37.358Z,-82
2023-05-02T15:09:06.311Z,-82
2023-05-02T15:11:34.798Z,-82
2023-05-02T15:14:04.916Z,-81
2023-05-02T15:16:33.376Z,-81
2023-05-02T15:19:02.320Z,-81
2023-05-02T15:21:31.009Z,-80
2023-05-02T15:24:01.671Z,-80
2023-05-02T15:26:33.326Z,-81
2023-05-02T15:29:01.898Z,-81
2023-05-02T15:31:34.372Z,-81
2023-05-02T15:34:03.125Z,-80
2023-05-02T15:36:32.914Z,-80
2023-05-02T15:39:08.919Z,-80
2023-05-02T15:41:37.324Z,-81
2023-05-02T15:44:06.514Z,-82
2023-05-02T15:46:35.093Z,-80
2023-05-02T15:49:04.968Z,-81
2023-05-02T15:51:33.457Z,-81
2023-05-02T15:54:03.940Z,-81
2023-05-02T15:56:33.227Z,-79
2023-05-02T15:59:01.952Z,-80
2023-05-02T16:01:30.995Z,-82
2023-05-02T16:03:59.750Z,-80
2023-05-02T16:06:29.570Z,-81
2023-05-02T16:08:58.808Z,-81
2023-05-02T16:11:28.634Z,-81
2023-05-02T16:13:57.876Z,-82
2023-05-02T16:16:27.037Z,-81
2023-05-02T16:18:56.042Z,-84
2023-05-02T16:21:26.721Z,-83
2023-05-02T16:23:55.533Z,-81
2023-05-02T16:26:24.282Z,-81
2023-05-02T16:28:54.241Z,-82
2023-05-02T16:31:22.705Z,-82
2023-05-02T16:33:51.445Z,-82
2023-05-02T16:36:21.206Z,-82
2023-05-02T16:38:49.986Z,-82
2023-05-02T16:41:18.519Z,-81
2023-05-02T16:43:48.679Z,-81
2023-05-02T16:46:18.852Z,-82
2023-05-02T16:48:48.076Z,-81
2023-05-02T16:51:17.043Z,-81
2023-05-02T16:53:46.310Z,-80
2023-05-02T16:56:15.085Z,-80
2023-05-02T16:58:43.831Z,-80
2023-05-02T17:01:13.160Z,-79
2023-05-02T17:03:43.090Z,-79
2023-05-02T17:06:11.458Z,-80
2023-05-02T17:08:40.126Z,-81
2023-05-02T17:11:08.811Z,-81
2023-05-02T17:13:37.171Z,-82
2023-05-02T17:16:08.521Z,-81
2023-05-02T17:18:37.398Z,-83
2023-05-02T17:21:07.971Z,-81
2023-05-02T17:23:36.609Z,-82
2023-05-02T17:26:08.181Z,-81
2023-05-02T17:28:36.729Z,-81
2023-05-02T17:31:05.568Z,-82
2023-05-02T17:33:34.317Z,-82
2023-05-02T17:36:02.944Z,-81
2023-05-02T17:38:32.844Z,-81
2023-05-02T17:41:01.314Z,-80
2023-05-02T17:43:29.969Z,-79
2023-05-02T17:45:58.904Z,-82
2023-05-02T17:48:27.978Z,-82
2023-05-02T17:50:56.525Z,-81
2023-05-02T17:53:26.419Z,-81
2023-05-02T17:55:56.342Z,-81
2023-05-02T17:58:27.734Z,-81
2023-05-02T18:00:56.212Z,-80
2023-05-02T18:03:24.916Z,-80
2023-05-02T18:05:53.414Z,-81
2023-05-02T18:08:22.483Z,-79
2023-05-02T18:10:50.813Z,-84
2023-05-02T18:13:21.006Z,-82
2023-05-02T18:15:57.039Z,-81
2023-05-02T18:18:25.750Z,-82
2023-05-02T18:20:54.313Z,-80
2023-05-02T18:23:22.788Z,-81
2023-05-02T18:25:51.168Z,-80
2023-05-02T18:28:21.274Z,-81
2023-05-02T18:30:50.140Z,-82
2023-05-02T18:33:18.749Z,-81
2023-05-02T18:35:48.665Z,-83
2023-05-02T18:38:17.696Z,-81
2023-05-02T18:40:46.500Z,-80
2023-05-02T18:43:15.146Z,-81
2023-05-02T18:45:45.377Z,-80
2023-05-02T18:48:13.483Z,-81
2023-05-02T18:50:42.033Z,-81
2023-05-02T18:53:10.501Z,-81
2023-05-02T18:55:39.491Z,-81
2023-05-02T18:58:07.769Z,-81
2023-05-02T19:00:37.390Z,-80
2023-05-02T19:03:07.598Z,-82
2023-05-02T19:05:36.102Z,-82
2023-05-02T19:08:05.587Z,-83
2023-05-02T19:10:34.229Z,-81
2023-05-02T19:13:03.022Z,-82
2023-05-02T19:15:31.607Z,-81
2023-05-02T19:18:00.713Z,-82
2023-05-02T19:20:31.398Z,-82
2023-05-02T19:23:14.704Z,-82
2023-05-02T19:25:47.538Z,-81
2023-05-02T19:28:17.395Z,-80
2023-05-02T19:30:46.241Z,-82
2023-05-02T19:33:14.650Z,-80
2023-05-02T19:35:44.880Z,-80
2023-05-02T19:38:13.414Z,-81
2023-05-02T19:40:41.936Z,-81
2023-05-02T19:43:11.045Z,-80
2023-05-02T19:45:39.624Z,-81
2023-05-02T19:48:08.436Z,-82
2023-05-02T19:50:37.947Z,-81
2023-05-02T19:53:07.977Z,-81
2023-05-02T19:55:36.446Z,-81
2023-05-02T19:58:05.107Z,-81
2023-05-02T20:00:34.257Z,-81
2023-05-02T20:03:03.260Z,-81
2023-05-02T20:05:32.041Z,-80
2023-05-02T20:08:00.743Z,-80
2023-05-02T20:10:31.475Z,-81
2023-05-02T20:13:00.149Z,-80
2023-05-02T20:15:28.853Z,-82
2023-05-02T20:17:58.454Z,-80
2023-05-02T20:20:26.657Z,-81
2023-05-02T20:22:55.525Z,-82
2023-05-02T20:25:24.124Z,-81
2023-05-02T20:27:54.322Z,-80
2023-05-02T20:30:22.935Z,-82
2023-05-02T20:32:51.551Z,-81
2023-05-02T20:35:20.242Z,-82
2023-05-02T20:37:50.929Z,-80
2023-05-02T20:40:19.789Z,-81
2023-05-02T20:42:48.598Z,-80
2023-05-02T20:45:23.996Z,-81
2023-05-02T20:47:53.612Z,-82
2023-05-02T20:50:22.403Z,-82
2023-05-02T20:52:53.689Z,-82
2023-05-02T20:55:23.144Z,-81
2023-05-02T20:57:53.778Z,-81
2023-05-02T21:00:24.411Z,-82
2023-05-02T21:02:52.769Z,-81
2023-05-02T21:05:21.251Z,-81
2023-05-02T21:07:50.083Z,-81
2023-05-02T21:10:18.667Z,-82
2023-05-02T21:12:46.993Z,-82
2023-05-02T21:15:15.675Z,-82
2023-05-02T21:17:45.825Z,-82
2023-05-02T21:20:15.356Z,-82
2023-05-02T21:22:44.077Z,-83
2023-05-02T21:25:12.828Z,-81
2023-05-02T21:27:41.735Z,-82
2023-05-02T21:30:11.349Z,-81
2023-05-02T21:32:40.378Z,-81
2023-05-02T21:35:11.949Z,-81
2023-05-02T21:37:40.420Z,-81
2023-05-02T21:40:10.389Z,-82
2023-05-02T21:42:39.090Z,-81
2023-05-02T21:45:09.428Z,-81
2023-05-02T21:47:38.326Z,-81
2023-05-02T21:50:07.721Z,-91
2023-05-02T21:52:37.146Z,-91
2023-05-02T21:55:05.751Z,-91
2023-05-02T21:57:33.841Z,-90
2023-05-02T22:00:02.237Z,-91
2023-05-02T22:02:30.571Z,-91
2023-05-02T22:04:58.851Z,-91
2023-05-02T22:07:27.367Z,-89
2023-05-02T22:09:56.835Z,-89
2023-05-02T22:12:26.205Z,-88
2023-05-02T22:14:54.314Z,-90
2023-05-02T22:17:22.997Z,-87
2023-05-02T22:19:51.730Z,-88
2023-05-02T22:22:19.772Z,-89
2023-05-02T22:24:47.819Z,-87
2023-05-02T22:27:17.388Z,-89
2023-05-02T22:29:45.379Z,-89
2023-05-02T22:32:13.699Z,-89
2023-05-02T22:34:41.874Z,-89
2023-05-02T22:37:09.964Z,-89
2023-05-02T22:39:38.037Z,-87
2023-05-02T22:42:06.155Z,-87
2023-05-02T22:44:46.732Z,-89
2023-05-02T22:47:22.778Z,-88
2023-05-02T22:49:52.204Z,-89
2023-05-02T22:52:20.725Z,-89
2023-05-02T22:54:49.040Z,-89
2023-05-02T22:57:17.068Z,-88
2023-05-02T22:59:46.512Z,-89
2023-05-02T23:02:14.727Z,-89
2023-05-02T23:04:42.766Z,-88
2023-05-02T23:07:11.046Z,-89
2023-05-02T23:09:39.214Z,-89
2023-05-02T23:12:07.712Z,-89
2023-05-02T23:14:35.776Z,-87
2023-05-02T23:17:05.319Z,-89
2023-05-02T23:19:33.370Z,-88
2023-05-02T23:22:01.528Z,-86
2023-05-02T23:24:30.076Z,-88
2023-05-02T23:26:58.262Z,-86
2023-05-02T23:29:27.271Z,-87
2023-05-02T23:31:55.527Z,-86
2023-05-02T23:34:25.347Z,-89
2023-05-02T23:36:53.638Z,-88
2023-05-02T23:39:21.884Z,-89
2023-05-02T23:41:49.942Z,-88
2023-05-02T23:44:18.053Z,-88
2023-05-02T23:46:46.703Z,-89
2023-05-02T23:49:14.781Z,-88
2023-05-02T23:51:44.288Z,-89
2023-05-02T23:54:12.796Z,-89
2023-05-02T23:56:40.976Z,-89
2023-05-02T23:59:09.073Z,-89
